sensor_id;sensor_type;location;lat;lon;timestamp;temperature;humidity
1546;DHT22;766;51.502;9.752;2022-12-07T00:01:39;1.00;99.90
1546;DHT22;766;51.502;9.752;2022-12-07T00:04:10;1.00;99.90
1546;DHT22;766;51.502;9.752;2022-12-07T00:06:40;1.00;99.90
1546;DHT22;766;51.502;9.752;2022-12-07T00:09:11;1.00;99.90
1546;DHT22;766;51.502;9.752;2022-12-07T00:11:40;0.90;99.90
1546;DHT22;766;51.502;9.752;2022-12-07T00:14:14;0.90;99.90
1546;DHT22;766;51.502;9.752;2022-12-07T00:16:44;0.90;99.90
1546;DHT22;766;51.502;9.752;2022-12-07T00:19:13;1.00;99.90
1546;DHT22;766;51.502;9.752;2022-12-07T00:21:42;1.00;99.90
1546;DHT22;766;51.502;9.752;2022-12-07T00:24:11;1.00;99.90
1546;DHT22;766;51.502;9.752;2022-12-07T00:26:41;0.90;99.90
1546;DHT22;766;51.502;9.752;2022-12-07T00:29:16;0.90;99.90
1546;DHT22;766;51.502;9.752;2022-12-07T00:31:44;0.90;99.90
1546;DHT22;766;51.502;9.752;2022-12-07T00:34:14;0.90;99.90
1546;DHT22;766;51.502;9.752;2022-12-07T00:36:43;0.80;99.90
1546;DHT22;766;51.502;9.752;2022-12-07T00:39:11;0.80;99.90
1546;DHT22;766;51.502;9.752;2022-12-07T00:41:40;0.80;99.90
1546;DHT22;766;51.502;9.752;2022-12-07T00:44:08;0.90;99.90
1546;DHT22;766;51.502;9.752;2022-12-07T00:46:37;0.90;99.90
1546;DHT22;766;51.502;9.752;2022-12-07T00:49:06;0.90;99.90
1546;DHT22;766;51.502;9.752;2022-12-07T00:51:34;0.90;99.90
1546;DHT22;766;51.502;9.752;2022-12-07T00:54:03;1.00;99.90
1546;DHT22;766;51.502;9.752;2022-12-07T00:56:32;1.00;99.90
1546;DHT22;766;51.502;9.752;2022-12-07T00:59:02;1.00;99.90
1546;DHT22;766;51.502;9.752;2022-12-07T01:01:33;1.00;99.90
1546;DHT22;766;51.502;9.752;2022-12-07T01:04:03;1.00;99.90
1546;DHT22;766;51.502;9.752;2022-12-07T01:06:32;1.00;99.90
1546;DHT22;766;51.502;9.752;2022-12-07T01:09:02;1.00;99.90
1546;DHT22;766;51.502;9.752;2022-12-07T01:11:31;1.00;99.90
1546;DHT22;766;51.502;9.752;2022-12-07T01:14:00;1.00;99.90
1546;DHT22;766;51.502;9.752;2022-12-07T01:16:30;1.00;99.90
1546;DHT22;766;51.502;9.752;2022-12-07T01:19:01;1.10;99.90
1546;DHT22;766;51.502;9.752;2022-12-07T01:21:35;1.00;99.90
1546;DHT22;766;51.502;9.752;2022-12-07T01:24:07;1.00;99.90
1546;DHT22;766;51.502;9.752;2022-12-07T01:26:35;1.00;99.90
1546;DHT22;766;51.502;9.752;2022-12-07T01:29:04;1.00;99.90
1546;DHT22;766;51.502;9.752;2022-12-07T01:31:32;1.00;99.90
1546;DHT22;766;51.502;9.752;2022-12-07T01:34:01;1.10;99.90
1546;DHT22;766;51.502;9.752;2022-12-07T01:36:32;1.10;99.90
1546;DHT22;766;51.502;9.752;2022-12-07T01:39:04;1.10;99.90
1546;DHT22;766;51.502;9.752;2022-12-07T01:41:35;1.10;99.90
1546;DHT22;766;51.502;9.752;2022-12-07T01:44:21;1.10;99.90
1546;DHT22;766;51.502;9.752;2022-12-07T01:46:51;1.10;99.90
1546;DHT22;766;51.502;9.752;2022-12-07T01:49:28;1.10;99.90
1546;DHT22;766;51.502;9.752;2022-12-07T01:52:03;1.10;99.90
1546;DHT22;766;51.502;9.752;2022-12-07T01:54:36;1.10;99.90
1546;DHT22;766;51.502;9.752;2022-12-07T01:57:06;1.10;99.90
1546;DHT22;766;51.502;9.752;2022-12-07T01:59:35;1.10;99.90
1546;DHT22;766;51.502;9.752;2022-12-07T02:02:07;1.10;99.90
1546;DHT22;766;51.502;9.752;2022-12-07T02:04:38;1.10;99.90
1546;DHT22;766;51.502;9.752;2022-12-07T02:07:07;1.10;99.90
1546;DHT22;766;51.502;9.752;2022-12-07T02:09:37;1.10;99.90
1546;DHT22;766;51.502;9.752;2022-12-07T02:12:05;1.10;99.90
1546;DHT22;766;51.502;9.752;2022-12-07T02:14:34;1.20;99.90
1546;DHT22;766;51.502;9.752;2022-12-07T02:17:10;1.20;99.90
1546;DHT22;766;51.502;9.752;2022-12-07T02:20:11;1.20;99.90
1546;DHT22;766;51.502;9.752;2022-12-07T02:23:24;1.20;99.90
1546;DHT22;766;51.502;9.752;2022-12-07T02:26:30;1.20;99.90
1546;DHT22;766;51.502;9.752;2022-12-07T02:29:22;1.20;99.90
1546;DHT22;766;51.502;9.752;2022-12-07T02:31:59;1.20;99.90
1546;DHT22;766;51.502;9.752;2022-12-07T02:34:39;1.20;99.90
1546;DHT22;766;51.502;9.752;2022-12-07T02:37:17;1.20;99.90
1546;DHT22;766;51.502;9.752;2022-12-07T02:39:50;1.20;99.90
1546;DHT22;766;51.502;9.752;2022-12-07T02:42:24;1.20;99.90
1546;DHT22;766;51.502;9.752;2022-12-07T02:44:56;1.20;99.90
1546;DHT22;766;51.502;9.752;2022-12-07T02:47:26;1.20;99.90
1546;DHT22;766;51.502;9.752;2022-12-07T02:49:55;1.30;99.90
1546;DHT22;766;51.502;9.752;2022-12-07T02:52:25;1.30;99.90
1546;DHT22;766;51.502;9.752;2022-12-07T02:54:53;1.30;99.90
1546;DHT22;766;51.502;9.752;2022-12-07T02:57:34;1.30;99.90
1546;DHT22;766;51.502;9.752;2022-12-07T03:00:09;1.30;99.90
1546;DHT22;766;51.502;9.752;2022-12-07T03:02:49;1.40;99.90
1546;DHT22;766;51.502;9.752;2022-12-07T03:08:23;1.50;99.90
1546;DHT22;766;51.502;9.752;2022-12-07T03:10:56;1.50;99.90
1546;DHT22;766;51.502;9.752;2022-12-07T03:13:30;1.60;99.90
1546;DHT22;766;51.502;9.752;2022-12-07T03:16:08;1.50;99.90
1546;DHT22;766;51.502;9.752;2022-12-07T03:18:39;1.60;99.90
1546;DHT22;766;51.502;9.752;2022-12-07T03:21:18;1.60;99.90
1546;DHT22;766;51.502;9.752;2022-12-07T03:23:51;1.60;99.90
1546;DHT22;766;51.502;9.752;2022-12-07T03:26:27;1.70;99.90
1546;DHT22;766;51.502;9.752;2022-12-07T03:29:02;1.70;99.90
1546;DHT22;766;51.502;9.752;2022-12-07T03:31:37;1.70;99.90
1546;DHT22;766;51.502;9.752;2022-12-07T03:34:12;1.70;99.90
1546;DHT22;766;51.502;9.752;2022-12-07T03:36:46;1.70;99.90
1546;DHT22;766;51.502;9.752;2022-12-07T03:39:21;1.70;99.90
1546;DHT22;766;51.502;9.752;2022-12-07T03:41:51;1.70;99.90
1546;DHT22;766;51.502;9.752;2022-12-07T03:44:20;1.80;99.90
1546;DHT22;766;51.502;9.752;2022-12-07T03:46:58;1.80;99.90
1546;DHT22;766;51.502;9.752;2022-12-07T03:49:32;1.80;99.90
1546;DHT22;766;51.502;9.752;2022-12-07T03:52:12;1.80;99.90
1546;DHT22;766;51.502;9.752;2022-12-07T03:54:51;1.80;99.90
1546;DHT22;766;51.502;9.752;2022-12-07T03:57:22;1.90;99.90
1546;DHT22;766;51.502;9.752;2022-12-07T03:59:54;1.90;99.90
1546;DHT22;766;51.502;9.752;2022-12-07T04:02:25;1.90;99.90
1546;DHT22;766;51.502;9.752;2022-12-07T04:04:56;2.00;99.90
1546;DHT22;766;51.502;9.752;2022-12-07T04:07:24;2.00;99.90
1546;DHT22;766;51.502;9.752;2022-12-07T04:09:54;2.00;99.90
1546;DHT22;766;51.502;9.752;2022-12-07T04:12:23;2.10;99.90
1546;DHT22;766;51.502;9.752;2022-12-07T04:14:51;2.10;99.90
1546;DHT22;766;51.502;9.752;2022-12-07T04:17:19;2.10;99.90
1546;DHT22;766;51.502;9.752;2022-12-07T04:19:49;2.10;99.90
1546;DHT22;766;51.502;9.752;2022-12-07T04:22:17;2.10;99.90
1546;DHT22;766;51.502;9.752;2022-12-07T04:24:45;2.10;99.90
1546;DHT22;766;51.502;9.752;2022-12-07T04:27:14;2.10;99.90
1546;DHT22;766;51.502;9.752;2022-12-07T04:29:42;2.10;99.90
1546;DHT22;766;51.502;9.752;2022-12-07T04:32:10;2.20;99.90
1546;DHT22;766;51.502;9.752;2022-12-07T04:34:38;2.20;99.90
1546;DHT22;766;51.502;9.752;2022-12-07T04:37:08;2.20;99.90
1546;DHT22;766;51.502;9.752;2022-12-07T04:39:36;2.20;99.90
1546;DHT22;766;51.502;9.752;2022-12-07T04:42:04;2.20;99.90
1546;DHT22;766;51.502;9.752;2022-12-07T04:44:33;2.20;99.90
1546;DHT22;766;51.502;9.752;2022-12-07T04:47:02;2.20;99.90
1546;DHT22;766;51.502;9.752;2022-12-07T04:49:30;2.20;99.90
1546;DHT22;766;51.502;9.752;2022-12-07T04:51:59;2.20;99.90
1546;DHT22;766;51.502;9.752;2022-12-07T04:54:29;2.20;99.90
1546;DHT22;766;51.502;9.752;2022-12-07T04:56:57;2.20;99.90
1546;DHT22;766;51.502;9.752;2022-12-07T04:59:25;2.20;99.90
1546;DHT22;766;51.502;9.752;2022-12-07T05:01:54;2.20;99.90
1546;DHT22;766;51.502;9.752;2022-12-07T05:04:22;2.20;99.90
1546;DHT22;766;51.502;9.752;2022-12-07T05:06:50;2.20;99.90
1546;DHT22;766;51.502;9.752;2022-12-07T05:09:19;2.20;99.90
1546;DHT22;766;51.502;9.752;2022-12-07T05:11:48;2.30;99.90
1546;DHT22;766;51.502;9.752;2022-12-07T05:14:19;2.30;99.90
1546;DHT22;766;51.502;9.752;2022-12-07T05:16:49;2.20;99.90
1546;DHT22;766;51.502;9.752;2022-12-07T05:19:18;2.30;99.90
1546;DHT22;766;51.502;9.752;2022-12-07T05:21:47;2.30;99.90
1546;DHT22;766;51.502;9.752;2022-12-07T05:24:16;2.30;99.90
1546;DHT22;766;51.502;9.752;2022-12-07T05:26:45;2.20;99.90
1546;DHT22;766;51.502;9.752;2022-12-07T05:29:16;2.20;99.90
1546;DHT22;766;51.502;9.752;2022-12-07T05:31:45;2.20;99.90
1546;DHT22;766;51.502;9.752;2022-12-07T05:34:14;2.20;99.90
1546;DHT22;766;51.502;9.752;2022-12-07T05:36:42;2.20;99.90
1546;DHT22;766;51.502;9.752;2022-12-07T05:39:10;2.20;99.90
1546;DHT22;766;51.502;9.752;2022-12-07T05:41:39;2.20;99.90
1546;DHT22;766;51.502;9.752;2022-12-07T05:44:26;2.20;99.90
1546;DHT22;766;51.502;9.752;2022-12-07T05:46:54;2.20;99.90
1546;DHT22;766;51.502;9.752;2022-12-07T05:49:22;2.20;99.90
1546;DHT22;766;51.502;9.752;2022-12-07T05:51:51;2.30;99.90
1546;DHT22;766;51.502;9.752;2022-12-07T05:54:19;2.20;99.90
1546;DHT22;766;51.502;9.752;2022-12-07T05:56:47;2.30;99.90
1546;DHT22;766;51.502;9.752;2022-12-07T05:59:16;2.20;99.90
1546;DHT22;766;51.502;9.752;2022-12-07T06:01:52;2.30;99.90
1546;DHT22;766;51.502;9.752;2022-12-07T06:04:21;2.30;99.90
1546;DHT22;766;51.502;9.752;2022-12-07T06:06:50;2.30;99.90
1546;DHT22;766;51.502;9.752;2022-12-07T06:09:23;2.30;99.90
1546;DHT22;766;51.502;9.752;2022-12-07T06:11:52;2.30;99.90
1546;DHT22;766;51.502;9.752;2022-12-07T06:14:38;2.30;99.90
1546;DHT22;766;51.502;9.752;2022-12-07T06:17:08;2.30;99.90
1546;DHT22;766;51.502;9.752;2022-12-07T06:19:36;2.30;99.90
1546;DHT22;766;51.502;9.752;2022-12-07T06:22:05;2.30;99.90
1546;DHT22;766;51.502;9.752;2022-12-07T06:24:34;2.20;99.90
1546;DHT22;766;51.502;9.752;2022-12-07T06:27:04;2.20;99.90
1546;DHT22;766;51.502;9.752;2022-12-07T06:29:33;2.20;99.90
1546;DHT22;766;51.502;9.752;2022-12-07T06:32:01;2.20;99.90
1546;DHT22;766;51.502;9.752;2022-12-07T06:34:31;2.10;99.90
1546;DHT22;766;51.502;9.752;2022-12-07T06:36:59;2.10;99.90
1546;DHT22;766;51.502;9.752;2022-12-07T06:39:28;2.10;99.90
1546;DHT22;766;51.502;9.752;2022-12-07T06:41:57;2.10;99.90
1546;DHT22;766;51.502;9.752;2022-12-07T06:44:25;2.20;99.90
1546;DHT22;766;51.502;9.752;2022-12-07T06:46:54;2.20;99.90
1546;DHT22;766;51.502;9.752;2022-12-07T06:49:43;2.20;99.90
1546;DHT22;766;51.502;9.752;2022-12-07T06:52:12;2.30;99.90
1546;DHT22;766;51.502;9.752;2022-12-07T06:54:40;2.30;99.90
1546;DHT22;766;51.502;9.752;2022-12-07T06:57:09;2.30;99.90
1546;DHT22;766;51.502;9.752;2022-12-07T06:59:37;2.30;99.90
1546;DHT22;766;51.502;9.752;2022-12-07T07:02:05;2.30;99.90
1546;DHT22;766;51.502;9.752;2022-12-07T07:04:34;2.30;99.90
1546;DHT22;766;51.502;9.752;2022-12-07T07:07:03;2.30;99.90
1546;DHT22;766;51.502;9.752;2022-12-07T07:09:31;2.30;99.90
1546;DHT22;766;51.502;9.752;2022-12-07T07:12:00;2.30;99.90
1546;DHT22;766;51.502;9.752;2022-12-07T07:14:28;2.30;99.90
1546;DHT22;766;51.502;9.752;2022-12-07T07:16:56;2.30;99.90
1546;DHT22;766;51.502;9.752;2022-12-07T07:19:25;2.30;99.90
1546;DHT22;766;51.502;9.752;2022-12-07T07:21:53;2.20;99.90
1546;DHT22;766;51.502;9.752;2022-12-07T07:24:23;2.20;99.90
1546;DHT22;766;51.502;9.752;2022-12-07T07:26:53;2.20;99.90
1546;DHT22;766;51.502;9.752;2022-12-07T07:30:13;2.30;99.90
1546;DHT22;766;51.502;9.752;2022-12-07T07:32:41;2.20;99.90
1546;DHT22;766;51.502;9.752;2022-12-07T07:35:10;2.30;99.90
1546;DHT22;766;51.502;9.752;2022-12-07T07:37:42;2.30;99.90
1546;DHT22;766;51.502;9.752;2022-12-07T07:40:12;2.30;99.90
1546;DHT22;766;51.502;9.752;2022-12-07T07:42:40;2.30;99.90
1546;DHT22;766;51.502;9.752;2022-12-07T07:45:09;2.30;99.90
1546;DHT22;766;51.502;9.752;2022-12-07T07:47:38;2.30;99.90
1546;DHT22;766;51.502;9.752;2022-12-07T07:50:10;2.30;99.90
1546;DHT22;766;51.502;9.752;2022-12-07T07:52:39;2.30;99.90
1546;DHT22;766;51.502;9.752;2022-12-07T07:55:08;2.30;99.90
1546;DHT22;766;51.502;9.752;2022-12-07T07:57:39;2.30;99.90
1546;DHT22;766;51.502;9.752;2022-12-07T08:00:10;2.30;99.90
1546;DHT22;766;51.502;9.752;2022-12-07T08:02:42;2.40;99.90
1546;DHT22;766;51.502;9.752;2022-12-07T08:05:12;2.30;99.90
1546;DHT22;766;51.502;9.752;2022-12-07T08:07:40;2.30;99.90
1546;DHT22;766;51.502;9.752;2022-12-07T08:10:11;2.40;99.90
1546;DHT22;766;51.502;9.752;2022-12-07T08:12:42;2.40;99.90
1546;DHT22;766;51.502;9.752;2022-12-07T08:15:25;2.30;99.90
1546;DHT22;766;51.502;9.752;2022-12-07T08:17:54;2.30;99.90
1546;DHT22;766;51.502;9.752;2022-12-07T08:20:23;2.40;99.90
1546;DHT22;766;51.502;9.752;2022-12-07T08:22:54;2.40;99.90
1546;DHT22;766;51.502;9.752;2022-12-07T08:25:22;2.40;99.90
1546;DHT22;766;51.502;9.752;2022-12-07T08:27:52;2.40;99.90
1546;DHT22;766;51.502;9.752;2022-12-07T08:30:20;2.30;99.90
1546;DHT22;766;51.502;9.752;2022-12-07T08:32:49;2.30;99.90
1546;DHT22;766;51.502;9.752;2022-12-07T08:35:18;2.30;99.90
1546;DHT22;766;51.502;9.752;2022-12-07T08:37:46;2.40;99.90
1546;DHT22;766;51.502;9.752;2022-12-07T08:40:15;2.40;99.90
1546;DHT22;766;51.502;9.752;2022-12-07T08:42:48;2.30;99.90
1546;DHT22;766;51.502;9.752;2022-12-07T08:45:19;2.40;99.90
1546;DHT22;766;51.502;9.752;2022-12-07T08:47:56;2.40;99.90
1546;DHT22;766;51.502;9.752;2022-12-07T08:50:26;2.40;99.90
1546;DHT22;766;51.502;9.752;2022-12-07T08:52:57;2.50;99.90
1546;DHT22;766;51.502;9.752;2022-12-07T08:55:27;2.50;99.90
1546;DHT22;766;51.502;9.752;2022-12-07T08:57:57;2.50;99.90
1546;DHT22;766;51.502;9.752;2022-12-07T09:00:27;2.50;99.90
1546;DHT22;766;51.502;9.752;2022-12-07T09:02:55;2.50;99.90
1546;DHT22;766;51.502;9.752;2022-12-07T09:05:24;2.50;99.90
1546;DHT22;766;51.502;9.752;2022-12-07T09:07:55;2.50;99.90
1546;DHT22;766;51.502;9.752;2022-12-07T09:10:25;2.60;99.90
1546;DHT22;766;51.502;9.752;2022-12-07T09:12:53;2.50;99.90
1546;DHT22;766;51.502;9.752;2022-12-07T09:15:22;2.60;99.90
1546;DHT22;766;51.502;9.752;2022-12-07T09:17:51;2.60;99.90
1546;DHT22;766;51.502;9.752;2022-12-07T09:20:20;2.60;99.90
1546;DHT22;766;51.502;9.752;2022-12-07T09:22:54;2.60;99.90
1546;DHT22;766;51.502;9.752;2022-12-07T09:25:22;2.60;99.90
1546;DHT22;766;51.502;9.752;2022-12-07T09:27:55;2.70;99.90
1546;DHT22;766;51.502;9.752;2022-12-07T09:30:24;2.70;99.90
1546;DHT22;766;51.502;9.752;2022-12-07T09:32:55;2.70;99.90
1546;DHT22;766;51.502;9.752;2022-12-07T09:35:25;2.80;99.90
1546;DHT22;766;51.502;9.752;2022-12-07T09:37:54;2.70;99.90
1546;DHT22;766;51.502;9.752;2022-12-07T09:40:23;2.70;99.90
1546;DHT22;766;51.502;9.752;2022-12-07T09:42:53;2.70;99.90
1546;DHT22;766;51.502;9.752;2022-12-07T09:45:25;2.70;99.90
1546;DHT22;766;51.502;9.752;2022-12-07T09:47:56;2.80;99.90
1546;DHT22;766;51.502;9.752;2022-12-07T09:50:27;2.80;99.90
1546;DHT22;766;51.502;9.752;2022-12-07T09:53:04;2.90;99.90
1546;DHT22;766;51.502;9.752;2022-12-07T09:55:34;3.00;99.90
1546;DHT22;766;51.502;9.752;2022-12-07T09:58:03;3.00;99.90
1546;DHT22;766;51.502;9.752;2022-12-07T10:00:32;3.00;99.90
1546;DHT22;766;51.502;9.752;2022-12-07T10:03:02;2.90;99.90
1546;DHT22;766;51.502;9.752;2022-12-07T10:05:32;2.90;99.90
1546;DHT22;766;51.502;9.752;2022-12-07T10:08:03;2.90;99.90
1546;DHT22;766;51.502;9.752;2022-12-07T10:10:34;2.90;99.90
1546;DHT22;766;51.502;9.752;2022-12-07T10:13:08;2.90;99.90
1546;DHT22;766;51.502;9.752;2022-12-07T10:15:42;2.80;99.90
1546;DHT22;766;51.502;9.752;2022-12-07T10:18:25;2.90;99.90
1546;DHT22;766;51.502;9.752;2022-12-07T10:21:15;2.90;99.90
1546;DHT22;766;51.502;9.752;2022-12-07T10:23:59;2.80;99.90
1546;DHT22;766;51.502;9.752;2022-12-07T10:26:31;2.70;99.90
1546;DHT22;766;51.502;9.752;2022-12-07T10:29:01;2.90;99.90
1546;DHT22;766;51.502;9.752;2022-12-07T10:31:30;2.90;99.90
1546;DHT22;766;51.502;9.752;2022-12-07T10:34:00;2.90;99.90
1546;DHT22;766;51.502;9.752;2022-12-07T10:36:36;2.90;99.90
1546;DHT22;766;51.502;9.752;2022-12-07T10:39:13;2.80;99.90
1546;DHT22;766;51.502;9.752;2022-12-07T10:41:53;2.90;99.90
1546;DHT22;766;51.502;9.752;2022-12-07T10:44:24;2.90;99.90
1546;DHT22;766;51.502;9.752;2022-12-07T10:50:25;2.90;99.90
1546;DHT22;766;51.502;9.752;2022-12-07T10:56:11;2.90;99.90
1546;DHT22;766;51.502;9.752;2022-12-07T10:58:56;2.90;99.90
1546;DHT22;766;51.502;9.752;2022-12-07T11:01:31;2.90;99.90
1546;DHT22;766;51.502;9.752;2022-12-07T11:04:24;3.00;99.90
1546;DHT22;766;51.502;9.752;2022-12-07T11:07:07;3.00;99.90
1546;DHT22;766;51.502;9.752;2022-12-07T11:10:01;2.90;99.90
1546;DHT22;766;51.502;9.752;2022-12-07T11:12:54;2.90;99.90
1546;DHT22;766;51.502;9.752;2022-12-07T11:15:34;2.90;99.90
1546;DHT22;766;51.502;9.752;2022-12-07T11:18:11;2.90;99.90
1546;DHT22;766;51.502;9.752;2022-12-07T11:20:44;2.90;99.90
1546;DHT22;766;51.502;9.752;2022-12-07T11:23:29;2.90;99.90
1546;DHT22;766;51.502;9.752;2022-12-07T11:26:07;3.00;99.90
1546;DHT22;766;51.502;9.752;2022-12-07T11:28:53;2.90;99.90
1546;DHT22;766;51.502;9.752;2022-12-07T11:31:31;3.00;99.90
1546;DHT22;766;51.502;9.752;2022-12-07T11:34:08;3.10;99.90
1546;DHT22;766;51.502;9.752;2022-12-07T11:36:43;3.10;99.90
1546;DHT22;766;51.502;9.752;2022-12-07T11:39:20;3.20;99.90
1546;DHT22;766;51.502;9.752;2022-12-07T11:41:55;3.10;99.90
1546;DHT22;766;51.502;9.752;2022-12-07T11:44:30;3.10;99.90
1546;DHT22;766;51.502;9.752;2022-12-07T11:47:06;3.00;99.90
1546;DHT22;766;51.502;9.752;2022-12-07T11:49:41;3.00;99.90
1546;DHT22;766;51.502;9.752;2022-12-07T11:52:18;3.10;99.90
1546;DHT22;766;51.502;9.752;2022-12-07T11:54:51;3.00;99.90
1546;DHT22;766;51.502;9.752;2022-12-07T11:57:26;3.00;99.90
1546;DHT22;766;51.502;9.752;2022-12-07T12:00:00;2.90;99.90
1546;DHT22;766;51.502;9.752;2022-12-07T12:02:34;3.00;99.90
1546;DHT22;766;51.502;9.752;2022-12-07T12:05:13;3.00;99.90
1546;DHT22;766;51.502;9.752;2022-12-07T12:07:44;2.90;99.90
1546;DHT22;766;51.502;9.752;2022-12-07T12:10:44;2.90;99.90
1546;DHT22;766;51.502;9.752;2022-12-07T12:16:55;2.90;99.90
1546;DHT22;766;51.502;9.752;2022-12-07T12:19:32;3.00;99.90
1546;DHT22;766;51.502;9.752;2022-12-07T12:22:10;3.00;99.90
1546;DHT22;766;51.502;9.752;2022-12-07T12:24:40;3.00;99.90
1546;DHT22;766;51.502;9.752;2022-12-07T12:27:21;3.00;99.90
1546;DHT22;766;51.502;9.752;2022-12-07T12:29:54;3.10;99.90
1546;DHT22;766;51.502;9.752;2022-12-07T12:32:32;3.10;99.90
1546;DHT22;766;51.502;9.752;2022-12-07T12:35:26;3.10;99.90
1546;DHT22;766;51.502;9.752;2022-12-07T12:38:26;3.10;99.90
1546;DHT22;766;51.502;9.752;2022-12-07T12:40:55;3.10;99.90
1546;DHT22;766;51.502;9.752;2022-12-07T12:43:45;3.10;99.90
1546;DHT22;766;51.502;9.752;2022-12-07T12:46:50;3.10;99.90
1546;DHT22;766;51.502;9.752;2022-12-07T12:49:36;3.10;99.90
1546;DHT22;766;51.502;9.752;2022-12-07T12:55:30;3.10;99.90
1546;DHT22;766;51.502;9.752;2022-12-07T12:58:29;3.00;99.90
1546;DHT22;766;51.502;9.752;2022-12-07T13:01:38;3.10;99.90
1546;DHT22;766;51.502;9.752;2022-12-07T13:10:43;3.30;99.90
1546;DHT22;766;51.502;9.752;2022-12-07T13:13:33;3.40;99.90
1546;DHT22;766;51.502;9.752;2022-12-07T13:16:38;3.40;99.90
1546;DHT22;766;51.502;9.752;2022-12-07T13:22:51;3.50;99.90
1546;DHT22;766;51.502;9.752;2022-12-07T13:25:41;3.60;99.90
1546;DHT22;766;51.502;9.752;2022-12-07T13:28:17;3.60;99.90
1546;DHT22;766;51.502;9.752;2022-12-07T13:31:27;3.60;99.90
1546;DHT22;766;51.502;9.752;2022-12-07T13:34:02;3.60;99.90
1546;DHT22;766;51.502;9.752;2022-12-07T13:36:33;3.60;99.90
1546;DHT22;766;51.502;9.752;2022-12-07T13:39:18;3.40;99.90
1546;DHT22;766;51.502;9.752;2022-12-07T13:41:51;3.40;99.90
1546;DHT22;766;51.502;9.752;2022-12-07T13:44:20;3.30;99.90
1546;DHT22;766;51.502;9.752;2022-12-07T13:47:01;3.20;99.90
1546;DHT22;766;51.502;9.752;2022-12-07T13:49:37;3.20;99.90
1546;DHT22;766;51.502;9.752;2022-12-07T13:52:14;3.30;99.90
1546;DHT22;766;51.502;9.752;2022-12-07T13:54:54;3.30;99.90
1546;DHT22;766;51.502;9.752;2022-12-07T13:57:28;3.30;99.90
1546;DHT22;766;51.502;9.752;2022-12-07T13:59:57;3.20;99.90
1546;DHT22;766;51.502;9.752;2022-12-07T14:02:27;3.20;99.90
1546;DHT22;766;51.502;9.752;2022-12-07T14:05:09;3.20;99.90
1546;DHT22;766;51.502;9.752;2022-12-07T14:07:52;3.20;99.90
1546;DHT22;766;51.502;9.752;2022-12-07T14:10:26;3.10;99.90
1546;DHT22;766;51.502;9.752;2022-12-07T14:12:54;3.10;99.90
1546;DHT22;766;51.502;9.752;2022-12-07T14:15:27;3.10;99.90
1546;DHT22;766;51.502;9.752;2022-12-07T14:17:57;3.00;99.90
1546;DHT22;766;51.502;9.752;2022-12-07T14:20:34;3.00;99.90
1546;DHT22;766;51.502;9.752;2022-12-07T14:23:03;3.00;99.90
1546;DHT22;766;51.502;9.752;2022-12-07T14:25:45;3.00;99.90
1546;DHT22;766;51.502;9.752;2022-12-07T14:28:27;3.00;99.90
1546;DHT22;766;51.502;9.752;2022-12-07T14:30:56;3.00;99.90
1546;DHT22;766;51.502;9.752;2022-12-07T14:33:28;2.90;99.90
1546;DHT22;766;51.502;9.752;2022-12-07T14:35:58;2.90;99.90
1546;DHT22;766;51.502;9.752;2022-12-07T14:38:33;3.00;99.90
1546;DHT22;766;51.502;9.752;2022-12-07T14:41:03;2.90;99.90
1546;DHT22;766;51.502;9.752;2022-12-07T14:43:49;2.90;99.90
1546;DHT22;766;51.502;9.752;2022-12-07T14:46:37;2.90;99.90
1546;DHT22;766;51.502;9.752;2022-12-07T14:49:06;2.90;99.90
1546;DHT22;766;51.502;9.752;2022-12-07T14:51:56;2.90;99.90
1546;DHT22;766;51.502;9.752;2022-12-07T14:54:44;2.90;99.90
1546;DHT22;766;51.502;9.752;2022-12-07T14:57:12;2.90;99.90
1546;DHT22;766;51.502;9.752;2022-12-07T14:59:40;2.90;99.90
1546;DHT22;766;51.502;9.752;2022-12-07T15:02:13;2.80;99.90
1546;DHT22;766;51.502;9.752;2022-12-07T15:04:42;2.80;99.90
1546;DHT22;766;51.502;9.752;2022-12-07T15:07:16;2.70;99.90
1546;DHT22;766;51.502;9.752;2022-12-07T15:09:46;2.80;99.90
1546;DHT22;766;51.502;9.752;2022-12-07T15:12:14;2.80;99.90
1546;DHT22;766;51.502;9.752;2022-12-07T15:14:42;2.70;99.90
1546;DHT22;766;51.502;9.752;2022-12-07T15:17:11;2.80;99.90
1546;DHT22;766;51.502;9.752;2022-12-07T15:19:55;2.70;99.90
1546;DHT22;766;51.502;9.752;2022-12-07T15:22:25;2.80;99.90
1546;DHT22;766;51.502;9.752;2022-12-07T15:24:53;2.70;99.90
1546;DHT22;766;51.502;9.752;2022-12-07T15:27:22;2.80;99.90
1546;DHT22;766;51.502;9.752;2022-12-07T15:29:50;2.70;99.90
1546;DHT22;766;51.502;9.752;2022-12-07T15:32:18;2.80;99.90
1546;DHT22;766;51.502;9.752;2022-12-07T15:34:46;2.80;99.90
1546;DHT22;766;51.502;9.752;2022-12-07T15:37:18;2.80;99.90
1546;DHT22;766;51.502;9.752;2022-12-07T15:39:48;2.80;99.90
1546;DHT22;766;51.502;9.752;2022-12-07T15:42:16;2.80;99.90
1546;DHT22;766;51.502;9.752;2022-12-07T15:44:44;2.80;99.90
1546;DHT22;766;51.502;9.752;2022-12-07T15:47:31;2.80;99.90
1546;DHT22;766;51.502;9.752;2022-12-07T15:50:19;2.70;99.90
1546;DHT22;766;51.502;9.752;2022-12-07T15:52:47;2.80;99.90
1546;DHT22;766;51.502;9.752;2022-12-07T15:55:17;2.80;99.90
1546;DHT22;766;51.502;9.752;2022-12-07T15:57:46;2.80;99.90
1546;DHT22;766;51.502;9.752;2022-12-07T16:00:15;2.80;99.90
1546;DHT22;766;51.502;9.752;2022-12-07T16:02:43;2.80;99.90
1546;DHT22;766;51.502;9.752;2022-12-07T16:05:12;2.80;99.90
1546;DHT22;766;51.502;9.752;2022-12-07T16:07:40;2.70;99.90
1546;DHT22;766;51.502;9.752;2022-12-07T16:10:09;2.70;99.90
1546;DHT22;766;51.502;9.752;2022-12-07T16:12:39;2.70;99.90
1546;DHT22;766;51.502;9.752;2022-12-07T16:15:08;2.60;99.90
1546;DHT22;766;51.502;9.752;2022-12-07T16:17:36;2.60;99.90
1546;DHT22;766;51.502;9.752;2022-12-07T16:20:06;2.60;99.90
1546;DHT22;766;51.502;9.752;2022-12-07T16:22:35;2.70;99.90
1546;DHT22;766;51.502;9.752;2022-12-07T16:25:03;2.70;99.90
1546;DHT22;766;51.502;9.752;2022-12-07T16:27:32;2.70;99.90
1546;DHT22;766;51.502;9.752;2022-12-07T16:30:02;2.70;99.90
1546;DHT22;766;51.502;9.752;2022-12-07T16:32:30;2.60;99.90
1546;DHT22;766;51.502;9.752;2022-12-07T16:34:59;2.60;99.90
1546;DHT22;766;51.502;9.752;2022-12-07T16:37:28;2.60;99.90
1546;DHT22;766;51.502;9.752;2022-12-07T16:39:56;2.60;99.90
1546;DHT22;766;51.502;9.752;2022-12-07T16:42:25;2.60;99.90
1546;DHT22;766;51.502;9.752;2022-12-07T16:44:53;2.60;99.90
1546;DHT22;766;51.502;9.752;2022-12-07T16:47:23;2.70;99.90
1546;DHT22;766;51.502;9.752;2022-12-07T16:49:51;2.60;99.90
1546;DHT22;766;51.502;9.752;2022-12-07T16:52:20;2.60;99.90
1546;DHT22;766;51.502;9.752;2022-12-07T16:54:48;2.70;99.90
1546;DHT22;766;51.502;9.752;2022-12-07T16:57:17;2.70;99.90
1546;DHT22;766;51.502;9.752;2022-12-07T16:59:50;2.70;99.90
1546;DHT22;766;51.502;9.752;2022-12-07T17:02:19;2.70;99.90
1546;DHT22;766;51.502;9.752;2022-12-07T17:04:49;2.60;99.90
1546;DHT22;766;51.502;9.752;2022-12-07T17:07:20;2.60;99.90
1546;DHT22;766;51.502;9.752;2022-12-07T17:09:48;2.60;99.90
1546;DHT22;766;51.502;9.752;2022-12-07T17:12:17;2.60;99.90
1546;DHT22;766;51.502;9.752;2022-12-07T17:14:45;2.60;99.90
1546;DHT22;766;51.502;9.752;2022-12-07T17:17:47;2.60;99.90
1546;DHT22;766;51.502;9.752;2022-12-07T17:20:20;2.60;99.90
1546;DHT22;766;51.502;9.752;2022-12-07T17:22:49;2.60;99.90
1546;DHT22;766;51.502;9.752;2022-12-07T17:25:18;2.60;99.90
1546;DHT22;766;51.502;9.752;2022-12-07T17:27:46;2.60;99.90
1546;DHT22;766;51.502;9.752;2022-12-07T17:30:15;2.60;99.90
1546;DHT22;766;51.502;9.752;2022-12-07T17:32:44;2.60;99.90
1546;DHT22;766;51.502;9.752;2022-12-07T17:35:12;2.50;99.90
1546;DHT22;766;51.502;9.752;2022-12-07T17:37:42;2.50;99.90
1546;DHT22;766;51.502;9.752;2022-12-07T17:40:17;2.50;99.90